sensor_id;sensor_type;location;lat;lon;timestamp;pressure;altitude;pressure_sealevel;temperature
40199;BMP280;25906;43.536;26.068;2023-04-01T00:01:49;97959.69;;;10.38
40199;BMP280;25906;43.536;26.068;2023-04-01T00:04:35;97961.13;;;10.30
40199;BMP280;25906;43.536;26.068;2023-04-01T00:07:20;97969.09;;;10.39
40199;BMP280;25906;43.536;26.068;2023-04-01T00:10:07;97959.50;;;10.32
40199;BMP280;25906;43.536;26.068;2023-04-01T00:12:53;97956.66;;;10.18
40199;BMP280;25906;43.536;26.068;2023-04-01T00:15:38;97951.66;;;10.10
40199;BMP280;25906;43.536;26.068;2023-04-01T00:18:24;97947.66;;;10.06
40199;BMP280;25906;43.536;26.068;2023-04-01T00:21:10;97944.38;;;10.24
40199;BMP280;25906;43.536;26.068;2023-04-01T00:23:55;97928.50;;;10.24
40199;BMP280;25906;43.536;26.068;2023-04-01T00:26:41;97925.53;;;10.22
40199;BMP280;25906;43.536;26.068;2023-04-01T00:29:27;97925.72;;;10.27
40199;BMP280;25906;43.536;26.068;2023-04-01T00:32:14;97933.81;;;10.33
40199;BMP280;25906;43.536;26.068;2023-04-01T00:35:00;97925.63;;;10.49
40199;BMP280;25906;43.536;26.068;2023-04-01T00:37:45;97918.72;;;10.60
40199;BMP280;25906;43.536;26.068;2023-04-01T00:40:33;97905.66;;;10.57
40199;BMP280;25906;43.536;26.068;2023-04-01T00:43:20;97900.34;;;10.57
40199;BMP280;25906;43.536;26.068;2023-04-01T00:46:05;97903.47;;;10.55
40199;BMP280;25906;43.536;26.068;2023-04-01T00:48:53;97901.25;;;10.54
40199;BMP280;25906;43.536;26.068;2023-04-01T00:51:41;97905.81;;;10.63
40199;BMP280;25906;43.536;26.068;2023-04-01T00:54:28;97893.91;;;10.58
40199;BMP280;25906;43.536;26.068;2023-04-01T00:57:28;97891.84;;;10.71
40199;BMP280;25906;43.536;26.068;2023-04-01T01:00:16;97888.06;;;10.81
40199;BMP280;25906;43.536;26.068;2023-04-01T01:03:02;97890.84;;;10.87
40199;BMP280;25906;43.536;26.068;2023-04-01T01:06:08;97887.44;;;10.86
40199;BMP280;25906;43.536;26.068;2023-04-01T01:15:30;97868.47;;;10.97
40199;BMP280;25906;43.536;26.068;2023-04-01T01:18:35;97868.94;;;10.95
40199;BMP280;25906;43.536;26.068;2023-04-01T01:21:33;97869.94;;;10.98
40199;BMP280;25906;43.536;26.068;2023-04-01T01:27:22;97864.03;;;11.21
40199;BMP280;25906;43.536;26.068;2023-04-01T01:30:28;97858.31;;;11.23
40199;BMP280;25906;43.536;26.068;2023-04-01T01:33:35;97851.09;;;11.14
40199;BMP280;25906;43.536;26.068;2023-04-01T01:36:29;97841.84;;;11.09
40199;BMP280;25906;43.536;26.068;2023-04-01T01:39:16;97840.38;;;11.08
40199;BMP280;25906;43.536;26.068;2023-04-01T01:42:05;97841.09;;;11.09
40199;BMP280;25906;43.536;26.068;2023-04-01T01:44:53;97832.72;;;11.01
40199;BMP280;25906;43.536;26.068;2023-04-01T01:47:41;97836.44;;;11.04
40199;BMP280;25906;43.536;26.068;2023-04-01T01:50:28;97836.97;;;11.08
40199;BMP280;25906;43.536;26.068;2023-04-01T01:53:13;97841.84;;;11.09
40199;BMP280;25906;43.536;26.068;2023-04-01T01:55:59;97837.44;;;11.06
40199;BMP280;25906;43.536;26.068;2023-04-01T01:58:47;97834.78;;;10.97
40199;BMP280;25906;43.536;26.068;2023-04-01T02:01:39;97823.31;;;11.00
40199;BMP280;25906;43.536;26.068;2023-04-01T02:04:25;97821.44;;;10.92
40199;BMP280;25906;43.536;26.068;2023-04-01T02:07:16;97820.53;;;10.95
40199;BMP280;25906;43.536;26.068;2023-04-01T02:10:04;97819.38;;;10.78
40199;BMP280;25906;43.536;26.068;2023-04-01T02:12:50;97814.66;;;10.82
40199;BMP280;25906;43.536;26.068;2023-04-01T02:15:41;97814.09;;;10.87
40199;BMP280;25906;43.536;26.068;2023-04-01T02:18:29;97818.94;;;10.79
40199;BMP280;25906;43.536;26.068;2023-04-01T02:21:15;97816.44;;;10.76
40199;BMP280;25906;43.536;26.068;2023-04-01T02:24:03;97805.72;;;10.70
40199;BMP280;25906;43.536;26.068;2023-04-01T02:26:52;97801.00;;;10.74
40199;BMP280;25906;43.536;26.068;2023-04-01T02:29:38;97805.41;;;10.77
40199;BMP280;25906;43.536;26.068;2023-04-01T02:32:24;97799.69;;;10.70
40199;BMP280;25906;43.536;26.068;2023-04-01T02:35:12;97801.31;;;10.67
40199;BMP280;25906;43.536;26.068;2023-04-01T02:37:58;97792.06;;;10.63
40199;BMP280;25906;43.536;26.068;2023-04-01T02:40:50;97778.81;;;10.63
40199;BMP280;25906;43.536;26.068;2023-04-01T02:43:36;97775.59;;;10.49
40199;BMP280;25906;43.536;26.068;2023-04-01T02:46:21;97775.88;;;10.42
40199;BMP280;25906;43.536;26.068;2023-04-01T02:49:07;97773.25;;;10.51
40199;BMP280;25906;43.536;26.068;2023-04-01T02:51:52;97777.06;;;10.50
40199;BMP280;25906;43.536;26.068;2023-04-01T02:54:38;97773.25;;;10.42
40199;BMP280;25906;43.536;26.068;2023-04-01T02:57:24;97766.63;;;10.38
40199;BMP280;25906;43.536;26.068;2023-04-01T03:00:10;97760.31;;;10.26
40199;BMP280;25906;43.536;26.068;2023-04-01T03:02:56;97759.13;;;10.27
40199;BMP280;25906;43.536;26.068;2023-04-01T03:05:41;97748.84;;;10.29
40199;BMP280;25906;43.536;26.068;2023-04-01T03:08:27;97741.81;;;10.35
40199;BMP280;25906;43.536;26.068;2023-04-01T03:11:13;97747.97;;;10.32
40199;BMP280;25906;43.536;26.068;2023-04-01T03:13:58;97748.56;;;10.27
40199;BMP280;25906;43.536;26.068;2023-04-01T03:16:43;97739.16;;;10.35
40199;BMP280;25906;43.536;26.068;2023-04-01T03:19:29;97742.38;;;10.30
40199;BMP280;25906;43.536;26.068;2023-04-01T03:22:14;97741.50;;;10.42
40199;BMP280;25906;43.536;26.068;2023-04-01T03:25:01;97744.88;;;10.43
40199;BMP280;25906;43.536;26.068;2023-04-01T03:27:46;97752.66;;;10.46
40199;BMP280;25906;43.536;26.068;2023-04-01T03:30:31;97747.06;;;10.53
40199;BMP280;25906;43.536;26.068;2023-04-01T03:33:17;97747.06;;;10.53
40199;BMP280;25906;43.536;26.068;2023-04-01T03:36:03;97745.47;;;10.56
40199;BMP280;25906;43.536;26.068;2023-04-01T03:38:51;97748.97;;;10.62
40199;BMP280;25906;43.536;26.068;2023-04-01T03:41:37;97746.50;;;10.58
40199;BMP280;25906;43.536;26.068;2023-04-01T03:44:23;97735.91;;;10.58
40199;BMP280;25906;43.536;26.068;2023-04-01T03:47:08;97742.66;;;10.69
40199;BMP280;25906;43.536;26.068;2023-04-01T03:49:56;97747.06;;;10.63
40199;BMP280;25906;43.536;26.068;2023-04-01T03:52:42;97746.50;;;10.68
40199;BMP280;25906;43.536;26.068;2023-04-01T03:55:27;97745.16;;;10.63
40199;BMP280;25906;43.536;26.068;2023-04-01T03:58:13;97747.97;;;10.59
40199;BMP280;25906;43.536;26.068;2023-04-01T04:00:58;97745.75;;;10.58
40199;BMP280;25906;43.536;26.068;2023-04-01T04:03:44;97749.56;;;10.57
40199;BMP280;25906;43.536;26.068;2023-04-01T04:06:30;97745.03;;;10.48
40199;BMP280;25906;43.536;26.068;2023-04-01T04:09:15;97744.16;;;10.51
40199;BMP280;25906;43.536;26.068;2023-04-01T04:12:01;97746.66;;;10.46
40199;BMP280;25906;43.536;26.068;2023-04-01T04:14:46;97752.66;;;10.46
40199;BMP280;25906;43.536;26.068;2023-04-01T04:17:32;97754.59;;;10.55
40199;BMP280;25906;43.536;26.068;2023-04-01T04:20:17;97740.63;;;10.45
40199;BMP280;25906;43.536;26.068;2023-04-01T04:23:03;97733.72;;;10.48
40199;BMP280;25906;43.536;26.068;2023-04-01T04:25:56;97733.41;;;10.55
40199;BMP280;25906;43.536;26.068;2023-04-01T04:28:42;97725.16;;;10.62
40199;BMP280;25906;43.536;26.068;2023-04-01T04:31:28;97729.28;;;10.72
40199;BMP280;25906;43.536;26.068;2023-04-01T04:34:13;97730.31;;;10.75
40199;BMP280;25906;43.536;26.068;2023-04-01T04:36:59;97721.94;;;10.67
40199;BMP280;25906;43.536;26.068;2023-04-01T04:39:44;97731.19;;;10.72
40199;BMP280;25906;43.536;26.068;2023-04-01T04:42:30;97730.44;;;10.80
40199;BMP280;25906;43.536;26.068;2023-04-01T04:45:15;97729.09;;;10.85
40199;BMP280;25906;43.536;26.068;2023-04-01T04:48:00;97736.13;;;10.97
40199;BMP280;25906;43.536;26.068;2023-04-01T04:50:48;97740.25;;;10.98
40199;BMP280;25906;43.536;26.068;2023-04-01T04:53:34;97743.16;;;11.09
40199;BMP280;25906;43.536;26.068;2023-04-01T04:56:21;97738.16;;;11.11
40199;BMP280;25906;43.536;26.068;2023-04-01T04:59:07;97728.72;;;11.10
40199;BMP280;25906;43.536;26.068;2023-04-01T05:01:52;97728.25;;;11.21
40199;BMP280;25906;43.536;26.068;2023-04-01T05:04:37;97723.22;;;11.32
40199;BMP280;25906;43.536;26.068;2023-04-01T05:07:23;97731.09;;;11.41
40199;BMP280;25906;43.536;26.068;2023-04-01T05:10:09;97727.22;;;11.51
40199;BMP280;25906;43.536;26.068;2023-04-01T05:12:54;97722.63;;;11.61
40199;BMP280;25906;43.536;26.068;2023-04-01T05:15:40;97726.03;;;11.52
40199;BMP280;25906;43.536;26.068;2023-04-01T05:18:25;97722.63;;;11.61
40199;BMP280;25906;43.536;26.068;2023-04-01T05:21:12;97715.81;;;11.69
40199;BMP280;25906;43.536;26.068;2023-04-01T05:23:58;97719.09;;;11.64
40199;BMP280;25906;43.536;26.068;2023-04-01T05:26:43;97714.97;;;11.63
40199;BMP280;25906;43.536;26.068;2023-04-01T05:29:29;97719.63;;;11.68
40199;BMP280;25906;43.536;26.068;2023-04-01T05:32:15;97707.41;;;11.70
40199;BMP280;25906;43.536;26.068;2023-04-01T05:35:00;97712.06;;;11.75
40199;BMP280;25906;43.536;26.068;2023-04-01T05:37:45;97701.13;;;11.82
40199;BMP280;25906;43.536;26.068;2023-04-01T05:40:31;97703.41;;;11.89
40199;BMP280;25906;43.536;26.068;2023-04-01T05:43:17;97699.91;;;12.07
40199;BMP280;25906;43.536;26.068;2023-04-01T05:46:02;97693.63;;;12.19
40199;BMP280;25906;43.536;26.068;2023-04-01T05:48:48;97693.81;;;12.30
40199;BMP280;25906;43.536;26.068;2023-04-01T05:51:33;97693.00;;;12.39
40199;BMP280;25906;43.536;26.068;2023-04-01T05:54:19;97694.84;;;12.47
40199;BMP280;25906;43.536;26.068;2023-04-01T05:57:05;97684.03;;;12.51
40199;BMP280;25906;43.536;26.068;2023-04-01T05:59:50;97680.75;;;12.56
40199;BMP280;25906;43.536;26.068;2023-04-01T06:02:36;97686.75;;;12.71
40199;BMP280;25906;43.536;26.068;2023-04-01T06:05:26;97690.69;;;12.90
40199;BMP280;25906;43.536;26.068;2023-04-01T06:08:15;97685.97;;;13.00
40199;BMP280;25906;43.536;26.068;2023-04-01T06:20:26;97681.66;;;13.78
40199;BMP280;25906;43.536;26.068;2023-04-01T06:41:57;97675.97;;;14.79
40199;BMP280;25906;43.536;26.068;2023-04-01T06:44:57;97670.69;;;14.84
40199;BMP280;25906;43.536;26.068;2023-04-01T06:48:01;97666.34;;;14.81
40199;BMP280;25906;43.536;26.068;2023-04-01T06:50:58;97674.78;;;14.80
40199;BMP280;25906;43.536;26.068;2023-04-01T06:54:06;97665.00;;;14.66
40199;BMP280;25906;43.536;26.068;2023-04-01T06:56:58;97666.53;;;14.83
40199;BMP280;25906;43.536;26.068;2023-04-01T06:59:46;97663.41;;;14.79
40199;BMP280;25906;43.536;26.068;2023-04-01T07:02:50;97673.19;;;14.93
40199;BMP280;25906;43.536;26.068;2023-04-01T07:05:41;97669.78;;;14.93
40199;BMP280;25906;43.536;26.068;2023-04-01T07:08:28;97671.03;;;14.97
40199;BMP280;25906;43.536;26.068;2023-04-01T07:11:28;97665.63;;;14.86
40199;BMP280;25906;43.536;26.068;2023-04-01T07:14:26;97668.41;;;15.14
40199;BMP280;25906;43.536;26.068;2023-04-01T07:17:30;97667.06;;;15.35
40199;BMP280;25906;43.536;26.068;2023-04-01T07:20:20;97675.06;;;15.35
40199;BMP280;25906;43.536;26.068;2023-04-01T07:23:36;97673.06;;;15.25
40199;BMP280;25906;43.536;26.068;2023-04-01T07:26:23;97669.25;;;14.89
40199;BMP280;25906;43.536;26.068;2023-04-01T07:29:12;97665.34;;;14.84
40199;BMP280;25906;43.536;26.068;2023-04-01T07:35:23;97661.56;;;14.96
40199;BMP280;25906;43.536;26.068;2023-04-01T07:41:49;97665.66;;;14.92
40199;BMP280;25906;43.536;26.068;2023-04-01T07:51:09;97663.25;;;15.53
40199;BMP280;25906;43.536;26.068;2023-04-01T07:57:12;97658.63;;;15.48
40199;BMP280;25906;43.536;26.068;2023-04-01T08:00:18;97658.66;;;15.59
40199;BMP280;25906;43.536;26.068;2023-04-01T08:03:38;97648.47;;;15.57
40199;BMP280;25906;43.536;26.068;2023-04-01T08:06:47;97647.53;;;15.66
40199;BMP280;25906;43.536;26.068;2023-04-01T08:21:52;97619.91;;;15.75
40199;BMP280;25906;43.536;26.068;2023-04-01T08:24:44;97624.06;;;15.92
40199;BMP280;25906;43.536;26.068;2023-04-01T08:27:45;97612.63;;;16.03
40199;BMP280;25906;43.536;26.068;2023-04-01T08:33:27;97604.13;;;16.21
40199;BMP280;25906;43.536;26.068;2023-04-01T08:36:24;97602.91;;;16.33
40199;BMP280;25906;43.536;26.068;2023-04-01T08:39:55;97607.78;;;16.40
40199;BMP280;25906;43.536;26.068;2023-04-01T08:54:27;97596.94;;;16.96
40199;BMP280;25906;43.536;26.068;2023-04-01T09:07:08;97593.81;;;16.75
40199;BMP280;25906;43.536;26.068;2023-04-01T09:12:48;97588.03;;;16.71
40199;BMP280;25906;43.536;26.068;2023-04-01T09:15:59;97590.75;;;16.54
40199;BMP280;25906;43.536;26.068;2023-04-01T09:21:43;97586.09;;;16.60
40199;BMP280;25906;43.536;26.068;2023-04-01T09:39:45;97569.88;;;16.47
40199;BMP280;25906;43.536;26.068;2023-04-01T09:51:57;97561.75;;;16.86
40199;BMP280;25906;43.536;26.068;2023-04-01T10:10:37;97558.56;;;18.42
40199;BMP280;25906;43.536;26.068;2023-04-01T10:16:46;97545.59;;;18.27
40199;BMP280;25906;43.536;26.068;2023-04-01T10:20:39;97538.16;;;18.15
40199;BMP280;25906;43.536;26.068;2023-04-01T10:33:30;97545.47;;;18.39
40199;BMP280;25906;43.536;26.068;2023-04-01T11:10:36;97472.22;;;19.05
40199;BMP280;25906;43.536;26.068;2023-04-01T11:29:48;97468.81;;;18.54
40199;BMP280;25906;43.536;26.068;2023-04-01T11:36:08;97443.13;;;17.78
40199;BMP280;25906;43.536;26.068;2023-04-01T11:42:20;97432.75;;;17.45
40199;BMP280;25906;43.536;26.068;2023-04-01T11:45:34;97434.97;;;17.71
40199;BMP280;25906;43.536;26.068;2023-04-01T11:55:04;97444.25;;;18.31
40199;BMP280;25906;43.536;26.068;2023-04-01T12:10:51;97439.09;;;18.15
40199;BMP280;25906;43.536;26.068;2023-04-01T12:20:36;97418.03;;;17.33
40199;BMP280;25906;43.536;26.068;2023-04-01T12:27:13;97418.16;;;17.76
40199;BMP280;25906;43.536;26.068;2023-04-01T12:30:56;97413.28;;;17.74
40199;BMP280;25906;43.536;26.068;2023-04-01T12:36:41;97411.09;;;17.49
40199;BMP280;25906;43.536;26.068;2023-04-01T12:43:00;97411.47;;;17.83
40199;BMP280;25906;43.536;26.068;2023-04-01T12:52:31;97399.88;;;18.36
40199;BMP280;25906;43.536;26.068;2023-04-01T12:55:35;97394.28;;;18.53
40199;BMP280;25906;43.536;26.068;2023-04-01T13:14:42;97380.47;;;16.96
40199;BMP280;25906;43.536;26.068;2023-04-01T13:19:58;97392.03;;;17.04
40199;BMP280;25906;43.536;26.068;2023-04-01T13:23:11;97388.31;;;17.18
40199;BMP280;25906;43.536;26.068;2023-04-01T13:29:24;97372.59;;;17.57
40199;BMP280;25906;43.536;26.068;2023-04-01T13:44:09;97355.78;;;17.08
40199;BMP280;25906;43.536;26.068;2023-04-01T13:56:23;97352.94;;;16.71
40199;BMP280;25906;43.536;26.068;2023-04-01T14:06:27;97347.41;;;16.63
40199;BMP280;25906;43.536;26.068;2023-04-01T14:12:32;97343.00;;;16.66
40199;BMP280;25906;43.536;26.068;2023-04-01T14:21:43;97334.75;;;16.29
40199;BMP280;25906;43.536;26.068;2023-04-01T14:44:13;97306.25;;;15.38
40199;BMP280;25906;43.536;26.068;2023-04-01T14:49:43;97296.56;;;15.24
40199;BMP280;25906;43.536;26.068;2023-04-01T14:52:33;97306.03;;;15.08
40199;BMP280;25906;43.536;26.068;2023-04-01T14:55:48;97283.53;;;15.04
40199;BMP280;25906;43.536;26.068;2023-04-01T14:58:46;97279.44;;;14.97
40199;BMP280;25906;43.536;26.068;2023-04-01T15:01:40;97269.00;;;14.94
40199;BMP280;25906;43.536;26.068;2023-04-01T15:04:55;97264.19;;;14.70
40199;BMP280;25906;43.536;26.068;2023-04-01T15:23:13;97351.94;;;14.37
40199;BMP280;25906;43.536;26.068;2023-04-01T15:30:11;97342.91;;;13.64
40199;BMP280;25906;43.536;26.068;2023-04-01T15:36:02;97352.94;;;13.12
40199;BMP280;25906;43.536;26.068;2023-04-01T15:39:03;97353.84;;;13.03
40199;BMP280;25906;43.536;26.068;2023-04-01T15:42:25;97353.66;;;12.81
40199;BMP280;25906;43.536;26.068;2023-04-01T15:45:18;97370.97;;;12.77
40199;BMP280;25906;43.536;26.068;2023-04-01T15:48:33;97406.09;;;12.92
40199;BMP280;25906;43.536;26.068;2023-04-01T15:55:16;97458.19;;;13.10
40199;BMP280;25906;43.536;26.068;2023-04-01T16:21:37;97492.88;;;13.26
40199;BMP280;25906;43.536;26.068;2023-04-01T16:27:42;97497.19;;;12.98
40199;BMP280;25906;43.536;26.068;2023-04-01T16:30:38;97495.41;;;12.89
40199;BMP280;25906;43.536;26.068;2023-04-01T16:33:49;97490.88;;;12.55
40199;BMP280;25906;43.536;26.068;2023-04-01T16:36:48;97502.47;;;12.78
40199;BMP280;25906;43.536;26.068;2023-04-01T16:39:58;97481.56;;;12.45
40199;BMP280;25906;43.536;26.068;2023-04-01T16:43:10;97494.44;;;12.52
40199;BMP280;25906;43.536;26.068;2023-04-01T16:46:27;97496.13;;;12.49
40199;BMP280;25906;43.536;26.068;2023-04-01T16:49:24;97475.72;;;12.06
40199;BMP280;25906;43.536;26.068;2023-04-01T16:55:16;97464.50;;;11.52
40199;BMP280;25906;43.536;26.068;2023-04-01T16:58:02;97456.09;;;11.39
40199;BMP280;25906;43.536;26.068;2023-04-01T17:00:50;97461.56;;;11.36
40199;BMP280;25906;43.536;26.068;2023-04-01T17:03:41;97456.19;;;11.45
40199;BMP280;25906;43.536;26.068;2023-04-01T17:06:36;97447.63;;;11.50
40199;BMP280;25906;43.536;26.068;2023-04-01T17:19:37;97407.41;;;11.37
40199;BMP280;25906;43.536;26.068;2023-04-01T17:29:24;97436.19;;;11.29
40199;BMP280;25906;43.536;26.068;2023-04-01T17:42:33;97447.03;;;11.75
40199;BMP280;25906;43.536;26.068;2023-04-01T17:45:25;97448.88;;;11.84
40199;BMP280;25906;43.536;26.068;2023-04-01T17:57:46;97465.81;;;11.86
40199;BMP280;25906;43.536;26.068;2023-04-01T18:00:46;97475.91;;;11.88
40199;BMP280;25906;43.536;26.068;2023-04-01T18:09:55;97475.19;;;11.87
40199;BMP280;25906;43.536;26.068;2023-04-01T18:22:23;97487.81;;;11.78
40199;BMP280;25906;43.536;26.068;2023-04-01T18:31:21;97512.28;;;11.73
40199;BMP280;25906;43.536;26.068;2023-04-01T18:34:40;97510.44;;;11.49
40199;BMP280;25906;43.536;26.068;2023-04-01T18:37:32;97518.22;;;11.53
40199;BMP280;25906;43.536;26.068;2023-04-01T18:40:25;97526.13;;;11.24
40199;BMP280;25906;43.536;26.068;2023-04-01T18:46:31;97539.84;;;11.13
40199;BMP280;25906;43.536;26.068;2023-04-01T18:52:45;97557.22;;;11.14
40199;BMP280;25906;43.536;26.068;2023-04-01T18:55:32;97564.06;;;11.21
40199;BMP280;25906;43.536;26.068;2023-04-01T19:01:28;97571.97;;;11.06
40199;BMP280;25906;43.536;26.068;2023-04-01T19:04:56;97580.91;;;11.08
40199;BMP280;25906;43.536;26.068;2023-04-01T19:07:47;97579.69;;;10.95
40199;BMP280;25906;43.536;26.068;2023-04-01T19:13:27;97587.88;;;10.97
40199;BMP280;25906;43.536;26.068;2023-04-01T19:16:36;97580.00;;;10.88
40199;BMP280;25906;43.536;26.068;2023-04-01T19:20:08;97592.72;;;11.07
40199;BMP280;25906;43.536;26.068;2023-04-01T19:23:02;97586.34;;;11.14
40199;BMP280;25906;43.536;26.068;2023-04-01T19:25:57;97592.41;;;11.05
40199;BMP280;25906;43.536;26.068;2023-04-01T19:29:12;97591.75;;;11.20
40199;BMP280;25906;43.536;26.068;2023-04-01T19:39:30;97606.97;;;11.34
40199;BMP280;25906;43.536;26.068;2023-04-01T19:42:32;97600.19;;;11.33
40199;BMP280;25906;43.536;26.068;2023-04-01T19:45:44;97593.25;;;11.35
40199;BMP280;25906;43.536;26.068;2023-04-01T20:06:34;97591.66;;;11.52
40199;BMP280;25906;43.536;26.068;2023-04-01T20:15:26;97582.94;;;11.37
40199;BMP280;25906;43.536;26.068;2023-04-01T20:18:18;97597.09;;;11.34
40199;BMP280;25906;43.536;26.068;2023-04-01T20:21:33;97601.16;;;11.21
40199;BMP280;25906;43.536;26.068;2023-04-01T20:24:23;97614.72;;;11.14
40199;BMP280;25906;43.536;26.068;2023-04-01T20:27:20;97620.53;;;11.03
40199;BMP280;25906;43.536;26.068;2023-04-01T20:30:34;97616.50;;;10.84
40199;BMP280;25906;43.536;26.068;2023-04-01T20:36:24;97628.00;;;10.72
40199;BMP280;25906;43.536;26.068;2023-04-01T20:39:37;97612.75;;;10.57
40199;BMP280;25906;43.536;26.068;2023-04-01T20:48:56;97624.09;;;10.49
40199;BMP280;25906;43.536;26.068;2023-04-01T20:51:54;97629.53;;;10.45
40199;BMP280;25906;43.536;26.068;2023-04-01T21:13:13;97648.22;;;10.33
40199;BMP280;25906;43.536;26.068;2023-04-01T21:26:22;97646.19;;;10.09
40199;BMP280;25906;43.536;26.068;2023-04-01T22:06:11;97637.81;;;9.56
40199;BMP280;25906;43.536;26.068;2023-04-01T22:21:04;97648.91;;;9.42
40199;BMP280;25906;43.536;26.068;2023-04-01T22:24:00;97651.97;;;9.41
40199;BMP280;25906;43.536;26.068;2023-04-01T22:30:16;97666.22;;;9.43
40199;BMP280;25906;43.536;26.068;2023-04-01T22:39:24;97681.75;;;9.32
40199;BMP280;25906;43.536;26.068;2023-04-01T22:42:35;97665.50;;;9.03
40199;BMP280;25906;43.536;26.068;2023-04-01T22:51:22;97673.69;;;8.96
40199;BMP280;25906;43.536;26.068;2023-04-01T22:57:10;97669.84;;;8.88
40199;BMP280;25906;43.536;26.068;2023-04-01T23:05:35;97657.66;;;8.90
40199;BMP280;25906;43.536;26.068;2023-04-01T23:11:54;97662.56;;;9.01
40199;BMP280;25906;43.536;26.068;2023-04-01T23:14:47;97658.75;;;9.02
40199;BMP280;25906;43.536;26.068;2023-04-01T23:20:49;97652.25;;;8.94
40199;BMP280;25906;43.536;26.068;2023-04-01T23:23:48;97657.53;;;8.94
40199;BMP280;25906;43.536;26.068;2023-04-01T23:29:24;97649.19;;;8.95
40199;BMP280;25906;43.536;26.068;2023-04-01T23:32:19;97639.84;;;9.03
40199;BMP280;25906;43.536;26.068;2023-04-01T23:35:14;97641.47;;;9.01
40199;BMP280;25906;43.536;26.068;2023-04-01T23:38:01;97640.59;;;9.04
40199;BMP280;25906;43.536;26.068;2023-04-01T23:40:49;97640.66;;;9.22
40199;BMP280;25906;43.536;26.068;2023-04-01T23:43:39;97640.38;;;9.29
40199;BMP280;25906;43.536;26.068;2023-04-01T23:46:26;97637.13;;;9.25
40199;BMP280;25906;43.536;26.068;2023-04-01T23:49:16;97645.63;;;9.20
40199;BMP280;25906;43.536;26.068;2023-04-01T23:52:13;97650.31;;;9.16
